Time;durP1;ratioP1;P1;durP2;ratioP2;P2;SDS_P1;SDS_P2;PMS_P1;PMS_P2;Temp;Humidity;BMP_temperature;BMP_pressure;BME280_temperature;BME280_humidity;BME280_pressure;Samples;Min_cycle;Max_cycle;Signal;HPM_P1;HPM_P2
2023/05/15 00:00:09;;;;;;;5.00;3.60;;;;;;;11.32;100.00;100551.16;685703;28;1755;-62
2023/05/15 00:00:39;;;;;;;6.40;3.60;;;;;;;11.31;100.00;100558.16;684799;28;923;-61
2023/05/15 00:00:59;;;;;;;6.60;3.67;;;;;;;11.31;100.00;100547.69;685720;28;1927;-63
2023/05/15 00:01:20;;;;;;;5.37;3.80;;;;;;;11.33;100.00;100545.91;687458;28;912;-61
2023/05/15 00:01:41;;;;;;;5.45;3.50;;;;;;;11.35;100.00;100551.13;687302;28;1398;-61
2023/05/15 00:02:02;;;;;;;5.05;3.47;;;;;;;11.39;100.00;100537.13;683916;28;1641;-61
2023/05/15 00:02:22;;;;;;;5.00;3.45;;;;;;;11.45;100.00;100547.56;686624;28;921;-61
2023/05/15 00:02:43;;;;;;;4.90;3.63;;;;;;;11.44;100.00;100544.94;687439;28;5278;-61
2023/05/15 00:03:04;;;;;;;5.45;3.70;;;;;;;11.37;100.00;100552.00;686594;28;1580;-62
2023/05/15 00:03:24;;;;;;;5.63;3.65;;;;;;;11.30;100.00;100556.41;686533;28;972;-62
2023/05/15 00:03:45;;;;;;;6.00;3.90;;;;;;;11.31;100.00;100544.19;687968;28;980;-63
2023/05/15 00:04:05;;;;;;;5.50;3.67;;;;;;;11.30;100.00;100545.06;689514;28;1541;-62
2023/05/15 00:04:25;;;;;;;6.15;3.50;;;;;;;11.22;100.00;100548.63;687325;28;929;-61
2023/05/15 00:04:46;;;;;;;4.90;3.80;;;;;;;11.18;100.00;100546.91;687836;28;1347;-61
2023/05/15 00:05:07;;;;;;;6.53;3.80;;;;;;;11.16;100.00;100548.69;686728;28;1699;-61
2023/05/15 00:05:28;;;;;;;5.30;3.70;;;;;;;11.14;100.00;100546.97;687077;28;4549;-61
2023/05/15 00:05:48;;;;;;;5.00;3.53;;;;;;;11.09;100.00;100547.03;687611;28;916;-61
2023/05/15 00:06:08;;;;;;;5.23;3.40;;;;;;;11.11;100.00;100547.88;686734;28;1102;-61
2023/05/15 00:06:29;;;;;;;5.03;3.60;;;;;;;11.12;100.00;100544.38;690313;28;1295;-62
2023/05/15 00:06:50;;;;;;;5.77;3.70;;;;;;;11.15;100.00;100552.19;690355;28;944;-61
2023/05/15 00:07:10;;;;;;;5.60;3.67;;;;;;;11.15;100.00;100546.09;687322;28;1004;-62
2023/05/15 00:07:31;;;;;;;4.85;3.50;;;;;;;11.14;100.00;100544.34;687577;28;829;-61
2023/05/15 00:07:51;;;;;;;5.43;3.53;;;;;;;11.13;100.00;100543.50;686416;28;1579;-63
2023/05/15 00:08:12;;;;;;;4.95;3.58;;;;;;;11.10;100.00;100538.28;687578;28;1390;-61
2023/05/15 00:08:32;;;;;;;5.17;3.50;;;;;;;11.08;100.00;100540.06;686862;28;4523;-61
2023/05/15 00:08:52;;;;;;;6.20;3.80;;;;;;;11.08;100.00;100550.50;687077;28;1593;-62
2023/05/15 00:09:15;;;;;;;6.30;4.00;;;;;;;11.08;100.00;100545.28;690183;28;956;-63
2023/05/15 00:09:36;;;;;;;4.78;3.67;;;;;;;11.08;100.00;100540.91;689836;28;1334;-61
2023/05/15 00:09:56;;;;;;;5.00;3.65;;;;;;;11.08;100.00;100543.53;688812;28;1610;-61
2023/05/15 00:10:17;;;;;;;5.03;3.73;;;;;;;11.08;100.00;100538.28;690337;28;1015;-61
2023/05/15 00:10:37;;;;;;;5.20;3.70;;;;;;;11.10;100.00;100540.03;690414;28;877;-61
2023/05/15 00:10:57;;;;;;;5.40;3.70;;;;;;;11.09;100.00;100541.78;688475;28;1572;-62
2023/05/15 00:11:18;;;;;;;5.25;3.60;;;;;;;11.09;100.00;100536.56;690519;28;1117;-61
2023/05/15 00:11:38;;;;;;;5.23;3.43;;;;;;;11.08;100.00;100548.75;691512;28;4654;-61
2023/05/15 00:11:59;;;;;;;5.78;3.50;;;;;;;11.05;100.00;100545.31;689602;28;1684;-62
2023/05/15 00:12:19;;;;;;;5.70;3.77;;;;;;;11.03;100.00;100547.06;690685;28;900;-62
2023/05/15 00:12:40;;;;;;;4.78;3.35;;;;;;;11.04;100.00;100548.81;690998;28;797;-61
2023/05/15 00:13:00;;;;;;;4.70;3.40;;;;;;;11.04;100.00;100551.41;690116;28;1608;-62
2023/05/15 00:13:20;;;;;;;4.70;3.37;;;;;;;11.04;100.00;100548.81;691094;28;887;-62
2023/05/15 00:13:41;;;;;;;4.93;3.43;;;;;;;11.02;100.00;100545.31;690594;28;1106;-61
2023/05/15 00:14:01;;;;;;;5.40;3.70;;;;;;;11.00;100.00;100532.25;688924;28;1518;-61
2023/05/15 00:14:21;;;;;;;5.88;3.60;;;;;;;10.97;100.00;100545.38;690511;28;1390;-61
2023/05/15 00:14:42;;;;;;;5.70;3.70;;;;;;;10.98;100.00;100538.38;689777;28;4253;-61
2023/05/15 00:15:02;;;;;;;5.13;3.60;;;;;;;11.00;100.00;100541.88;689695;28;1596;-61
2023/05/15 00:15:23;;;;;;;5.60;3.77;;;;;;;10.99;100.00;100542.75;690369;28;1055;-61
2023/05/15 00:15:43;;;;;;;5.88;3.80;;;;;;;10.96;100.00;100545.38;690888;28;857;-61
2023/05/15 00:16:08;;;;;;;6.13;3.80;;;;;;;10.93;100.00;100540.19;689293;28;1525;-62
2023/05/15 00:16:28;;;;;;;5.60;3.90;;;;;;;10.92;100.00;100541.91;690661;28;1052;-61
2023/05/15 00:16:49;;;;;;;6.43;4.00;;;;;;;10.92;100.00;100543.66;691521;28;897;-61
2023/05/15 00:17:11;;;;;;;5.22;3.80;;;;;;;10.89;100.00;100541.94;689199;28;1504;-62
2023/05/15 00:17:31;;;;;;;4.90;3.83;;;;;;;10.88;100.00;100541.09;691403;28;4668;-61
2023/05/15 00:17:52;;;;;;;5.90;3.85;;;;;;;10.86;100.00;100534.13;688995;28;1550;-61
2023/05/15 00:18:12;;;;;;;5.30;3.73;;;;;;;10.86;100.00;100537.59;689984;28;885;-61
2023/05/15 00:18:33;;;;;;;5.80;3.73;;;;;;;10.89;100.00;100534.09;689879;28;770;-61
2023/05/15 00:18:53;;;;;;;5.20;3.60;;;;;;;10.89;100.00;100534.97;688855;28;1516;-63
2023/05/15 00:19:13;;;;;;;6.50;3.77;;;;;;;10.89;100.00;100532.34;690348;28;909;-61
2023/05/15 00:19:34;;;;;;;5.55;4.00;;;;;;;10.89;100.00;100539.34;690250;28;1069;-61
2023/05/15 00:19:56;;;;;;;5.40;4.00;;;;;;;10.90;100.00;100541.06;689559;28;1521;-61
2023/05/15 00:20:17;;;;;;;4.85;3.70;;;;;;;10.90;100.00;100538.47;689771;28;962;-61
2023/05/15 00:20:37;;;;;;;5.93;3.72;;;;;;;10.90;100.00;100536.69;689612;28;4511;-61
2023/05/15 00:20:58;;;;;;;6.07;3.73;;;;;;;10.89;100.00;100536.72;689067;28;1906;-62
2023/05/15 00:21:18;;;;;;;6.22;4.47;;;;;;;10.88;100.00;100543.72;690240;28;956;-61
2023/05/15 00:21:38;;;;;;;6.85;4.38;;;;;;;10.91;100.00;100532.34;690437;28;924;-61
2023/05/15 00:21:59;;;;;;;5.20;3.70;;;;;;;10.95;100.00;100538.41;688850;28;1465;-61
2023/05/15 00:22:19;;;;;;;5.23;3.83;;;;;;;10.94;100.00;100536.66;689794;28;1131;-61
2023/05/15 00:22:39;;;;;;;5.20;3.80;;;;;;;10.94;100.00;100534.06;689182;28;3127;-62
2023/05/15 00:23:00;;;;;;;5.33;4.00;;;;;;;10.93;100.00;100532.34;686505;28;988;-61
2023/05/15 00:23:20;;;;;;;5.38;4.00;;;;;;;10.92;100.00;100538.44;687571;28;1056;-61
2023/05/15 00:23:40;;;;;;;5.60;3.80;;;;;;;10.86;100.00;100535.00;687326;28;5424;-61
2023/05/15 00:24:01;;;;;;;5.73;3.77;;;;;;;10.82;100.00;100530.66;686587;28;1773;-62
2023/05/15 00:24:21;;;;;;;5.63;3.70;;;;;;;10.81;100.00;100534.16;687403;28;1545;-61
2023/05/15 00:24:41;;;;;;;6.33;4.20;;;;;;;10.80;100.00;100534.16;687329;28;881;-61
2023/05/15 00:25:02;;;;;;;5.80;4.10;;;;;;;10.77;100.00;100532.44;689264;28;1488;-61
2023/05/15 00:25:22;;;;;;;5.50;3.80;;;;;;;10.77;100.00;100539.44;689627;28;1242;-62
2023/05/15 00:25:43;;;;;;;5.00;3.45;;;;;;;10.76;100.00;100533.34;690601;28;1268;-61
2023/05/15 00:26:04;;;;;;;5.53;3.60;;;;;;;10.75;100.00;100531.59;689486;28;1493;-62
2023/05/15 00:26:25;;;;;;;6.63;3.63;;;;;;;10.76;100.00;100542.91;690338;28;886;-61
2023/05/15 00:26:45;;;;;;;5.20;3.63;;;;;;;10.74;100.00;100535.09;690097;28;5424;-61
2023/05/15 00:27:05;;;;;;;4.80;3.70;;;;;;;10.73;100.00;100539.47;691026;28;3214;-62
2023/05/15 00:27:26;;;;;;;5.40;3.65;;;;;;;10.72;100.00;100536.84;688679;28;1238;-60
2023/05/15 00:27:47;;;;;;;5.47;3.67;;;;;;;10.72;100.00;100536.84;690591;28;956;-60
2023/05/15 00:28:07;;;;;;;5.87;3.67;;;;;;;10.71;100.00;100535.97;686736;28;1590;-61
2023/05/15 00:28:27;;;;;;;5.43;3.50;;;;;;;10.72;100.00;100536.84;688832;28;861;-60
2023/05/15 00:28:50;;;;;;;4.70;3.53;;;;;;;10.71;100.00;100546.44;688015;28;1107;-61
2023/05/15 00:29:10;;;;;;;5.13;3.70;;;;;;;10.67;100.00;100536.00;690371;28;1426;-60
2023/05/15 00:29:32;;;;;;;5.68;3.80;;;;;;;10.65;100.00;100538.63;689829;28;4568;-61
2023/05/15 00:29:52;;;;;;;5.30;3.72;;;;;;;10.68;100.00;100537.75;688888;28;1524;-62
2023/05/15 00:30:13;;;;;;;4.60;3.73;;;;;;;10.66;100.00;100536.88;690685;28;837;-61
2023/05/15 00:30:34;;;;;;;5.30;3.75;;;;;;;10.65;100.00;100525.56;689067;28;1119;-62
2023/05/15 00:30:54;;;;;;;5.70;3.60;;;;;;;10.66;100.00;100531.66;688226;28;1705;-62
2023/05/15 00:31:15;;;;;;;6.13;3.53;;;;;;;10.67;100.00;100528.16;687553;28;1548;-62
2023/05/15 00:31:35;;;;;;;5.47;3.88;;;;;;;10.67;100.00;100533.41;687821;28;930;-61
2023/05/15 00:31:56;;;;;;;5.97;3.70;;;;;;;10.67;100.00;100534.25;688235;28;1529;-60
2023/05/15 00:32:19;;;;;;;5.57;3.70;;;;;;;10.65;100.00;100535.16;690292;28;935;-62
2023/05/15 00:32:39;;;;;;;5.45;3.80;;;;;;;10.64;100.00;100536.91;685192;28;4267;-61
2023/05/15 00:33:00;;;;;;;4.90;4.00;;;;;;;10.62;100.00;100529.94;682892;28;1845;-62
2023/05/15 00:33:20;;;;;;;5.18;3.80;;;;;;;10.64;100.00;100528.19;684594;28;817;-60
2023/05/15 00:33:40;;;;;;;5.07;3.73;;;;;;;10.63;100.00;100522.09;684088;28;913;-61
2023/05/15 00:34:01;;;;;;;4.47;3.43;;;;;;;10.65;100.00;100524.72;683458;28;1514;-62
2023/05/15 00:34:21;;;;;;;5.13;3.75;;;;;;;10.66;100.00;100527.31;685032;28;1470;-61
2023/05/15 00:34:42;;;;;;;5.32;4.03;;;;;;;10.68;100.00;100533.38;684621;28;1411;-61
2023/05/15 00:35:03;;;;;;;5.13;3.83;;;;;;;10.68;100.00;100535.16;682980;28;1562;-61
2023/05/15 00:35:24;;;;;;;5.68;4.00;;;;;;;10.67;100.00;100529.03;685098;28;823;-61
2023/05/15 00:35:45;;;;;;;5.93;3.77;;;;;;;10.68;100.00;100525.53;687291;28;4230;-61
2023/05/15 00:36:05;;;;;;;6.15;3.80;;;;;;;10.66;100.00;100532.53;686202;28;1553;-61
2023/05/15 00:36:26;;;;;;;4.65;3.70;;;;;;;10.69;100.00;100526.44;687741;28;1365;-61
2023/05/15 00:36:47;;;;;;;5.37;3.83;;;;;;;10.71;100.00;100527.28;687376;28;925;-61
2023/05/15 00:37:07;;;;;;;5.88;4.03;;;;;;;10.71;100.00;100529.88;683183;28;1775;-60
2023/05/15 00:37:27;;;;;;;6.20;3.95;;;;;;;10.71;100.00;100529.88;687544;28;1402;-61
2023/05/15 00:37:48;;;;;;;7.67;3.93;;;;;;;10.66;100.00;100531.66;687541;28;5605;-61
2023/05/15 00:38:08;;;;;;;5.53;4.00;;;;;;;10.66;100.00;100524.69;686226;28;1569;-61
2023/05/15 00:38:32;;;;;;;6.07;3.90;;;;;;;10.67;100.00;100528.16;687667;28;4489;-61
2023/05/15 00:38:53;;;;;;;5.50;3.65;;;;;;;10.67;100.00;100529.03;687926;28;941;-60
2023/05/15 00:39:13;;;;;;;5.63;3.80;;;;;;;10.68;100.00;100530.78;686877;28;1545;-61
2023/05/15 00:39:35;;;;;;;5.88;4.10;;;;;;;10.69;100.00;100526.44;687363;28;992;-61
2023/05/15 00:39:55;;;;;;;5.57;3.90;;;;;;;10.71;100.00;100529.88;686287;28;1920;-61
2023/05/15 00:40:22;;;;;;;5.88;3.90;;;;;;;10.72;100.00;100536.84;686630;28;1326;-62
2023/05/15 00:40:44;;;;;;;5.60;3.78;;;;;;;10.71;100.00;100527.28;685218;28;1426;-61
2023/05/15 00:41:06;;;;;;;5.35;3.70;;;;;;;10.70;100.00;100530.75;683702;28;1966;-61
2023/05/15 00:41:30;;;;;;;5.45;3.90;;;;;;;10.71;100.00;100527.28;681008;28;4316;-61
2023/05/15 00:41:52;;;;;;;4.95;3.70;;;;;;;10.72;100.00;100529.00;681359;28;1106;-63
2023/05/15 00:42:15;;;;;;;4.90;3.67;;;;;;;10.72;100.00;100536.84;684600;28;1527;-61
2023/05/15 00:42:35;;;;;;;5.43;3.67;;;;;;;10.72;100.00;100535.09;684972;28;1015;-62
2023/05/15 00:42:56;;;;;;;5.30;3.90;;;;;;;10.75;100.00;100530.75;686193;28;1596;-61
2023/05/15 00:43:18;;;;;;;6.10;3.90;;;;;;;10.74;100.00;100524.63;687170;28;1041;-61
2023/05/15 00:43:39;;;;;;;6.32;3.70;;;;;;;10.74;100.00;100529.84;687025;28;794;-61
2023/05/15 00:44:01;;;;;;;5.40;3.78;;;;;;;10.76;100.00;100535.94;686195;28;1580;-61
2023/05/15 00:44:23;;;;;;;5.80;3.80;;;;;;;10.77;100.00;100528.97;683950;28;1208;-61
2023/05/15 00:44:44;;;;;;;5.43;3.58;;;;;;;10.81;100.00;100526.31;688578;28;4949;-61
2023/05/15 00:45:07;;;;;;;6.07;3.70;;;;;;;10.84;100.00;100528.91;688583;28;1601;-61
2023/05/15 00:45:29;;;;;;;6.47;3.95;;;;;;;10.92;100.00;100526.22;687393;28;1323;-64
2023/05/15 00:45:51;;;;;;;5.97;3.53;;;;;;;11.03;100.00;100527.00;688852;28;976;-61
2023/05/15 00:46:12;;;;;;;5.95;3.88;;;;;;;11.11;100.00;100524.31;684493;28;1336;-61
2023/05/15 00:46:34;;;;;;;5.23;3.77;;;;;;;11.18;100.00;100525.13;686273;28;1032;-62
2023/05/15 00:46:56;;;;;;;4.90;3.80;;;;;;;11.25;100.00;100517.19;680933;28;1494;-62
2023/05/15 00:47:19;;;;;;;4.93;3.70;;;;;;;11.33;100.00;100524.13;681721;29;1511;-61
2023/05/15 00:47:42;;;;;;;6.03;3.60;;;;;;;11.29;100.00;100528.50;683721;28;4372;-61
2023/05/15 00:48:02;;;;;;;5.55;3.80;;;;;;;11.21;100.00;100519.88;683623;28;1491;-62
2023/05/15 00:48:24;;;;;;;5.43;3.70;;;;;;;11.14;100.00;100516.44;684932;28;845;-62
2023/05/15 00:48:45;;;;;;;5.53;3.75;;;;;;;11.02;100.00;100520.03;684293;28;1569;-61
2023/05/15 00:49:12;;;;;;;5.07;3.60;;;;;;;10.96;100.00;100529.69;683681;28;1557;-62
2023/05/15 00:49:34;;;;;;;4.72;3.70;;;;;;;10.87;100.00;100523.66;684356;28;853;-62
2023/05/15 00:49:56;;;;;;;4.68;3.63;;;;;;;10.82;100.00;100521.97;683388;28;1574;-61
2023/05/15 00:50:16;;;;;;;5.30;3.70;;;;;;;10.77;100.00;100528.97;681640;29;1442;-61
2023/05/15 00:50:40;;;;;;;5.23;3.73;;;;;;;10.71;100.00;100530.75;684770;28;4304;-61
2023/05/15 00:51:00;;;;;;;5.90;4.20;;;;;;;10.66;100.00;100526.44;683976;28;1226;-61
2023/05/15 00:51:21;;;;;;;6.40;4.10;;;;;;;10.63;100.00;100527.31;683258;28;1412;-61
2023/05/15 00:51:42;;;;;;;6.20;3.70;;;;;;;10.62;100.00;100515.13;680345;28;1164;-61
2023/05/15 00:52:03;;;;;;;5.63;4.00;;;;;;;10.62;100.00;100524.72;680405;28;1541;-61
2023/05/15 00:52:25;;;;;;;6.20;4.00;;;;;;;10.60;100.00;100510.81;679953;29;1206;-61
2023/05/15 00:52:45;;;;;;;5.20;3.90;;;;;;;10.59;100.00;100519.50;681395;29;901;-61
2023/05/15 00:53:06;;;;;;;7.40;3.75;;;;;;;10.55;100.00;100514.31;674901;29;1704;-61
2023/05/15 00:53:26;;;;;;;5.63;3.90;;;;;;;10.56;100.00;100518.66;679831;28;4580;-61
2023/05/15 00:53:50;;;;;;;5.38;3.80;;;;;;;10.55;100.00;100524.78;683428;28;1150;-61
2023/05/15 00:54:10;;;;;;;6.30;3.97;;;;;;;10.56;100.00;100518.66;686255;28;1544;-62
2023/05/15 00:54:31;;;;;;;5.60;4.00;;;;;;;10.57;100.00;100522.13;687524;28;924;-62
2023/05/15 00:54:52;;;;;;;5.80;4.00;;;;;;;10.57;100.00;100525.63;686502;28;1352;-61
2023/05/15 00:55:12;;;;;;;5.30;3.90;;;;;;;10.52;100.00;100516.97;683638;28;1478;-61
2023/05/15 00:55:34;;;;;;;5.95;3.85;;;;;;;10.48;100.00;100517.84;684902;28;1358;-61
2023/05/15 00:55:56;;;;;;;6.18;3.85;;;;;;;10.52;100.00;100511.72;682901;28;1546;-61
2023/05/15 00:56:17;;;;;;;4.93;3.72;;;;;;;10.53;100.00;100523.03;685014;28;865;-61
2023/05/15 00:56:40;;;;;;;4.97;3.92;;;;;;;10.50;100.00;100518.69;684221;28;4570;-61
2023/05/15 00:57:04;;;;;;;5.30;3.90;;;;;;;10.50;100.00;100517.84;683011;28;1454;-62
2023/05/15 00:57:26;;;;;;;5.75;3.90;;;;;;;10.49;100.00;100511.72;684481;28;816;-61
2023/05/15 00:57:47;;;;;;;5.82;3.97;;;;;;;10.47;100.00;100512.66;686775;28;945;-61
2023/05/15 00:58:09;;;;;;;5.40;4.05;;;;;;;10.47;100.00;100516.09;688195;28;1517;-61
2023/05/15 00:58:30;;;;;;;5.43;4.00;;;;;;;10.45;100.00;100515.25;688890;28;1199;-62
2023/05/15 00:58:53;;;;;;;5.53;4.00;;;;;;;10.44;100.00;100517.88;690472;28;1192;-61
2023/05/15 00:59:15;;;;;;;5.97;3.90;;;;;;;10.42;100.00;100520.50;690155;28;940;-61
2023/05/15 00:59:37;;;;;;;6.13;3.65;;;;;;;10.43;100.00;100518.75;687203;28;4371;-61
2023/05/15 01:00:00;;;;;;;5.35;4.13;;;;;;;10.39;100.00;100517.91;680390;28;1814;-61
2023/05/15 01:00:20;;;;;;;6.80;4.03;;;;;;;10.40;100.00;100524.88;683003;28;886;-61
2023/05/15 01:00:42;;;;;;;5.47;3.60;;;;;;;10.36;100.00;100518.78;682954;28;1174;-61
2023/05/15 01:01:03;;;;;;;5.47;4.00;;;;;;;10.36;100.00;100518.78;682403;28;1979;-61
2023/05/15 01:01:24;;;;;;;6.05;4.20;;;;;;;10.37;100.00;100519.66;680739;29;1226;-61
2023/05/15 01:01:44;;;;;;;5.32;4.13;;;;;;;10.35;100.00;100514.44;681081;28;1316;-62
2023/05/15 01:02:05;;;;;;;5.03;3.80;;;;;;;10.38;100.00;100518.78;681597;28;1452;-61
2023/05/15 01:02:25;;;;;;;6.70;4.03;;;;;;;10.42;100.00;100517.88;680959;28;4631;-61
2023/05/15 01:02:46;;;;;;;7.10;4.37;;;;;;;10.42;100.00;100517.03;681737;28;1522;-61
2023/05/15 01:03:06;;;;;;;5.50;4.10;;;;;;;10.46;100.00;100514.38;681205;28;1504;-62
2023/05/15 01:03:27;;;;;;;5.57;3.97;;;;;;;10.54;100.00;100515.19;684274;28;1515;-61
2023/05/15 01:03:48;;;;;;;4.93;3.88;;;;;;;10.54;100.00;100512.56;684960;28;956;-62
2023/05/15 01:04:08;;;;;;;6.57;4.15;;;;;;;10.53;100.00;100510.81;683299;28;1499;-62
2023/05/15 01:04:29;;;;;;;6.23;4.07;;;;;;;10.51;100.00;100516.97;681490;29;909;-61
2023/05/15 01:04:49;;;;;;;7.38;3.95;;;;;;;10.47;100.00;100510.88;682118;29;1372;-61
2023/05/15 01:05:10;;;;;;;5.30;3.70;;;;;;;10.46;100.00;100510.91;681496;28;1480;-61
2023/05/15 01:05:31;;;;;;;5.75;3.78;;;;;;;10.43;100.00;100513.53;682507;28;4411;-61
2023/05/15 01:05:51;;;;;;;6.03;4.00;;;;;;;10.38;100.00;100506.59;685258;28;924;-61
2023/05/15 01:06:12;;;;;;;5.87;3.97;;;;;;;10.41;100.00;100512.66;684761;28;1490;-62
2023/05/15 01:06:32;;;;;;;5.10;3.88;;;;;;;10.39;100.00;100512.69;687624;28;1482;-61
2023/05/15 01:06:54;;;;;;;5.75;3.70;;;;;;;10.36;100.00;100512.72;686164;28;1348;-61
2023/05/15 01:07:14;;;;;;;6.50;3.93;;;;;;;10.33;100.00;100507.47;687624;28;825;-62
2023/05/15 01:07:42;;;;;;;6.07;3.80;;;;;;;10.34;100.00;100514.41;687142;28;1116;-61
2023/05/15 01:08:44;;;;;;;6.38;3.90;;;;;;;10.32;100.00;100510.97;686322;28;1153;-62
2023/05/15 01:09:07;;;;;;;5.97;4.15;;;;;;;10.36;100.00;100515.31;685604;28;6607;-62
2023/05/15 01:09:30;;;;;;;5.32;3.90;;;;;;;10.36;100.00;100510.09;687655;28;1008;-62
2023/05/15 01:09:52;;;;;;;5.30;3.88;;;;;;;10.37;100.00;100514.41;686950;28;853;-62
2023/05/15 01:10:15;;;;;;;5.60;3.70;;;;;;;10.36;100.00;100516.19;687605;28;1017;-61
2023/05/15 01:10:36;;;;;;;5.30;3.88;;;;;;;10.34;100.00;100514.41;685182;28;1081;-61
2023/05/15 01:10:58;;;;;;;5.63;4.07;;;;;;;10.32;100.00;100508.34;685835;28;1513;-62
2023/05/15 01:11:19;;;;;;;5.22;3.70;;;;;;;10.29;100.00;100505.75;687610;28;1264;-62
2023/05/15 01:11:41;;;;;;;5.47;4.10;;;;;;;10.27;100.00;100512.72;686835;28;4493;-61
2023/05/15 01:12:04;;;;;;;5.13;3.90;;;;;;;10.26;100.00;100505.75;687802;28;1589;-62
2023/05/15 01:12:26;;;;;;;5.30;3.80;;;;;;;10.25;100.00;100509.25;688309;28;1371;-61
2023/05/15 01:12:50;;;;;;;5.00;3.85;;;;;;;10.24;100.00;100508.38;690109;28;750;-61
2023/05/15 01:13:12;;;;;;;6.30;3.85;;;;;;;10.24;100.00;100513.59;688880;28;1152;-61
2023/05/15 01:13:33;;;;;;;5.93;3.90;;;;;;;10.23;100.00;100512.75;690038;28;1059;-61
2023/05/15 01:13:53;;;;;;;5.67;3.83;;;;;;;10.18;100.00;100504.06;686248;28;1639;-61
2023/05/15 01:14:14;;;;;;;5.63;4.17;;;;;;;10.15;100.00;100511.03;687338;28;1351;-64
2023/05/15 01:14:34;;;;;;;5.57;4.00;;;;;;;10.16;100.00;100512.78;688098;28;4735;-61
2023/05/15 01:14:55;;;;;;;6.40;3.90;;;;;;;10.15;100.00;100508.41;687119;28;1416;-63
2023/05/15 01:15:16;;;;;;;6.00;4.25;;;;;;;10.16;100.00;100511.06;686807;28;1127;-61
2023/05/15 01:15:38;;;;;;;5.72;4.20;;;;;;;10.14;100.00;100511.94;689204;28;837;-61
2023/05/15 01:15:58;;;;;;;5.50;3.77;;;;;;;10.14;100.00;100506.72;690191;28;1687;-62
2023/05/15 01:16:21;;;;;;;5.25;3.80;;;;;;;10.13;100.00;100511.03;691385;28;857;-61
2023/05/15 01:16:41;;;;;;;6.18;4.00;;;;;;;10.13;100.00;100516.25;688741;28;873;-61
2023/05/15 01:17:01;;;;;;;5.25;3.60;;;;;;;10.14;100.00;100510.19;687744;28;1580;-61
2023/05/15 01:17:22;;;;;;;5.80;3.77;;;;;;;10.13;100.00;100513.66;690499;28;1394;-61
2023/05/15 01:17:42;;;;;;;5.50;4.15;;;;;;;10.13;100.00;100515.41;689681;28;4290;-61
2023/05/15 01:18:04;;;;;;;5.50;4.13;;;;;;;10.12;100.00;100511.06;688993;28;1488;-61
2023/05/15 01:18:30;;;;;;;5.18;3.90;;;;;;;10.11;100.00;100512.81;690333;28;1012;-62
2023/05/15 01:18:51;;;;;;;5.13;4.18;;;;;;;10.13;100.00;100511.03;686603;28;3178;-61
2023/05/15 01:19:11;;;;;;;5.60;4.22;;;;;;;10.14;100.00;100506.72;682916;28;1484;-62
2023/05/15 01:19:32;;;;;;;6.10;4.60;;;;;;;10.15;100.00;100514.53;679876;29;1184;-61
2023/05/15 01:19:54;;;;;;;7.00;4.72;;;;;;;10.16;100.00;100513.66;681904;28;1779;-61
2023/05/15 01:20:18;;;;;;;6.97;4.05;;;;;;;10.13;100.00;100510.19;682766;28;1183;-61
2023/05/15 01:20:49;;;;;;;5.97;4.07;;;;;;;10.11;100.00;100517.19;684188;28;4676;-61
2023/05/15 01:21:51;;;;;;;6.50;4.10;;;;;;;10.13;100.00;100518.03;688305;28;1969;-62
2023/05/15 01:22:20;;;;;;;5.40;3.90;;;;;;;10.15;100.00;100518.88;682849;28;1601;-61
2023/05/15 01:22:51;;;;;;;5.43;4.10;;;;;;;10.13;100.00;100515.41;684445;28;1218;-62
2023/05/15 01:23:23;;;;;;;6.07;3.95;;;;;;;10.13;100.00;100512.81;680431;28;1765;-61
2023/05/15 01:24:21;;;;;;;6.00;4.00;;;;;;;10.12;100.00;100514.56;685511;28;4357;-62
2023/05/15 01:25:12;;;;;;;5.40;4.03;;;;;;;10.13;100.00;100515.41;685818;28;906;-60
2023/05/15 01:25:53;;;;;;;5.72;4.00;;;;;;;10.11;100.00;100517.19;685488;28;1507;-61
2023/05/15 01:26:46;;;;;;;6.07;3.85;;;;;;;10.10;100.00;100511.06;684034;28;1519;-62
2023/05/15 01:27:15;;;;;;;4.80;3.85;;;;;;;10.10;100.00;100513.69;684449;28;4723;-60
2023/05/15 01:27:51;;;;;;;6.57;4.05;;;;;;;10.12;100.00;100511.06;687419;28;893;-62
2023/05/15 01:28:16;;;;;;;6.30;4.13;;;;;;;10.10;100.00;100518.91;688871;28;1434;-61
2023/05/15 01:28:42;;;;;;;5.55;4.03;;;;;;;10.09;100.00;100509.31;690704;28;2146;-61
2023/05/15 01:29:26;;;;;;;5.13;4.05;;;;;;;10.09;100.00;100514.53;689024;28;1556;-61
2023/05/15 01:29:57;;;;;;;5.82;3.80;;;;;;;10.08;100.00;100512.84;689748;28;4856;-62
2023/05/15 01:30:22;;;;;;;5.80;4.50;;;;;;;10.11;100.00;100514.56;690686;28;1342;-61
2023/05/15 01:30:44;;;;;;;5.40;4.10;;;;;;;10.10;100.00;100516.28;690048;28;1173;-61
2023/05/15 01:31:13;;;;;;;5.63;3.90;;;;;;;10.09;100.00;100519.78;688731;28;1473;-61
2023/05/15 01:31:37;;;;;;;5.10;3.95;;;;;;;10.08;100.00;100523.28;689968;28;1054;-61
2023/05/15 01:32:03;;;;;;;5.60;4.00;;;;;;;10.08;100.00;100518.06;687936;28;1607;-62
2023/05/15 01:32:32;;;;;;;5.70;3.92;;;;;;;10.08;100.00;100512.84;690256;28;842;-61
2023/05/15 01:32:54;;;;;;;6.43;4.05;;;;;;;10.07;100.00;100525.91;689300;28;4975;-61
2023/05/15 01:33:27;;;;;;;6.53;4.30;;;;;;;10.04;100.00;100519.81;692139;28;769;-62
2023/05/15 01:33:53;;;;;;;5.40;4.00;;;;;;;10.04;100.00;100517.19;690917;28;909;-61
2023/05/15 01:34:18;;;;;;;5.50;4.00;;;;;;;10.04;100.00;100521.56;689700;28;1576;-61
2023/05/15 01:34:54;;;;;;;5.63;4.28;;;;;;;9.99;100.00;100523.31;690973;28;957;-61
2023/05/15 01:35:30;;;;;;;4.75;3.58;;;;;;;9.95;100.00;100526.81;684926;28;2443;-61
2023/05/15 01:35:53;;;;;;;6.63;4.00;;;;;;;9.96;100.00;100523.34;684263;28;5000;-61
2023/05/15 01:36:17;;;;;;;5.32;4.00;;;;;;;9.98;100.00;100526.78;683488;28;1573;-61
2023/05/15 01:36:45;;;;;;;5.30;4.00;;;;;;;9.99;100.00;100524.16;681643;29;1408;-61
2023/05/15 01:37:07;;;;;;;4.93;3.90;;;;;;;10.00;100.00;100519.84;683170;28;1515;-61
2023/05/15 01:37:30;;;;;;;5.32;3.92;;;;;;;10.01;100.00;100521.53;686916;28;944;-61
2023/05/15 01:38:11;;;;;;;5.43;3.90;;;;;;;9.95;100.00;100522.44;686766;28;1585;-62
2023/05/15 01:38:44;;;;;;;6.63;4.20;;;;;;;9.95;100.00;100518.97;688568;28;4354;-60
2023/05/15 01:39:07;;;;;;;5.32;4.05;;;;;;;9.95;100.00;100521.59;688525;28;1473;-61
2023/05/15 01:39:28;;;;;;;5.50;4.40;;;;;;;9.96;100.00;100518.13;690325;28;1284;-61
2023/05/15 01:39:54;;;;;;;6.43;4.27;;;;;;;10.00;100.00;100522.44;690009;28;1135;-61
2023/05/15 01:40:18;;;;;;;6.45;4.28;;;;;;;9.99;100.00;100518.09;686652;28;920;-61
2023/05/15 01:40:39;;;;;;;5.60;4.00;;;;;;;10.02;100.00;100518.06;680894;29;1218;-60
2023/05/15 01:41:23;;;;;;;5.65;4.10;;;;;;;9.99;100.00;100516.34;683518;28;1910;-60
2023/05/15 01:41:50;;;;;;;5.90;4.00;;;;;;;9.96;100.00;100518.97;682552;28;4676;-60
2023/05/15 01:42:14;;;;;;;5.40;3.85;;;;;;;9.93;100.00;100513.75;682166;28;1476;-61
2023/05/15 01:42:40;;;;;;;5.80;4.00;;;;;;;9.93;100.00;100510.28;684101;28;1410;-61
2023/05/15 01:43:08;;;;;;;5.57;4.05;;;;;;;9.94;100.00;100514.63;682882;28;1487;-60
2023/05/15 01:43:34;;;;;;;6.00;3.92;;;;;;;9.89;100.00;100518.13;680819;29;1349;-60
2023/05/15 01:44:09;;;;;;;5.82;4.07;;;;;;;9.89;100.00;100512.03;677945;28;1533;-60
2023/05/15 01:44:31;;;;;;;6.70;4.20;;;;;;;9.89;100.00;100515.50;682934;28;4435;-60
2023/05/15 01:44:59;;;;;;;5.55;3.90;;;;;;;9.86;100.00;100510.31;687357;28;1291;-60
2023/05/15 01:45:23;;;;;;;5.40;4.07;;;;;;;9.84;100.00;100514.69;688356;28;912;-60
2023/05/15 01:45:44;;;;;;;6.03;4.10;;;;;;;9.86;100.00;100518.16;690291;28;1457;-60
2023/05/15 01:46:06;;;;;;;5.30;4.10;;;;;;;9.85;100.00;100511.19;688877;28;1588;-60
2023/05/15 01:46:29;;;;;;;5.40;4.30;;;;;;;9.85;100.00;100516.41;689987;28;1206;-60
2023/05/15 01:46:52;;;;;;;5.60;4.22;;;;;;;9.85;100.00;100515.53;690571;28;824;-60
2023/05/15 01:47:19;;;;;;;6.45;4.45;;;;;;;9.81;100.00;100509.44;689307;28;1462;-60
2023/05/15 01:47:45;;;;;;;5.45;4.10;;;;;;;9.78;100.00;100514.69;686980;28;4701;-60
2023/05/15 01:48:07;;;;;;;5.60;4.22;;;;;;;9.78;100.00;100519.91;685885;28;1604;-62
2023/05/15 01:48:30;;;;;;;6.13;4.47;;;;;;;9.78;100.00;100516.44;687222;28;1043;-61
2023/05/15 01:48:51;;;;;;;6.35;5.25;;;;;;;9.79;100.00;100519.03;686232;28;1201;-61